sensor_id;sensor_type;location;lat;lon;timestamp;P1;durP1;ratioP1;P2;durP2;ratioP2
52964;SDS011;42923;53.220;6.528;2023-05-17T00:01:33;27.15;;;5.50;;
52964;SDS011;42923;53.220;6.528;2023-05-17T00:03:59;25.67;;;4.40;;
52964;SDS011;42923;53.220;6.528;2023-05-17T00:06:24;17.50;;;4.45;;
52964;SDS011;42923;53.220;6.528;2023-05-17T00:08:50;18.35;;;3.83;;
52964;SDS011;42923;53.220;6.528;2023-05-17T00:11:16;14.73;;;4.18;;
52964;SDS011;42923;53.220;6.528;2023-05-17T00:13:41;19.00;;;4.22;;
52964;SDS011;42923;53.220;6.528;2023-05-17T00:16:07;19.17;;;3.47;;
52964;SDS011;42923;53.220;6.528;2023-05-17T00:18:33;29.58;;;5.85;;
52964;SDS011;42923;53.220;6.528;2023-05-17T00:20:58;24.75;;;6.20;;
52964;SDS011;42923;53.220;6.528;2023-05-17T00:23:24;29.30;;;4.82;;
52964;SDS011;42923;53.220;6.528;2023-05-17T00:25:50;20.02;;;4.43;;
52964;SDS011;42923;53.220;6.528;2023-05-17T00:28:15;23.20;;;5.30;;
52964;SDS011;42923;53.220;6.528;2023-05-17T00:30:41;20.67;;;4.22;;
52964;SDS011;42923;53.220;6.528;2023-05-17T00:33:07;20.73;;;3.88;;
52964;SDS011;42923;53.220;6.528;2023-05-17T00:35:32;13.73;;;3.47;;
52964;SDS011;42923;53.220;6.528;2023-05-17T00:37:58;24.30;;;4.20;;
52964;SDS011;42923;53.220;6.528;2023-05-17T00:40:24;23.48;;;4.80;;
52964;SDS011;42923;53.220;6.528;2023-05-17T00:42:50;22.40;;;3.90;;
52964;SDS011;42923;53.220;6.528;2023-05-17T00:45:15;16.42;;;4.40;;
52964;SDS011;42923;53.220;6.528;2023-05-17T00:47:41;20.58;;;4.03;;
52964;SDS011;42923;53.220;6.528;2023-05-17T00:50:07;22.13;;;4.63;;
52964;SDS011;42923;53.220;6.528;2023-05-17T00:52:34;11.98;;;3.78;;
52964;SDS011;42923;53.220;6.528;2023-05-17T00:55:00;27.25;;;4.57;;
52964;SDS011;42923;53.220;6.528;2023-05-17T00:57:26;21.13;;;4.32;;
52964;SDS011;42923;53.220;6.528;2023-05-17T00:59:54;20.55;;;3.83;;
52964;SDS011;42923;53.220;6.528;2023-05-17T01:02:20;19.10;;;4.35;;
52964;SDS011;42923;53.220;6.528;2023-05-17T01:04:46;15.10;;;4.13;;
52964;SDS011;42923;53.220;6.528;2023-05-17T01:07:13;16.33;;;3.67;;
52964;SDS011;42923;53.220;6.528;2023-05-17T01:09:39;16.70;;;3.92;;
52964;SDS011;42923;53.220;6.528;2023-05-17T01:15:14;15.00;;;4.75;;
52964;SDS011;42923;53.220;6.528;2023-05-17T01:20:39;16.10;;;3.92;;
52964;SDS011;42923;53.220;6.528;2023-05-17T01:26:19;15.52;;;3.88;;
52964;SDS011;42923;53.220;6.528;2023-05-17T01:28:52;20.83;;;4.18;;
52964;SDS011;42923;53.220;6.528;2023-05-17T01:31:20;14.55;;;4.43;;
52964;SDS011;42923;53.220;6.528;2023-05-17T01:33:47;19.98;;;4.35;;
52964;SDS011;42923;53.220;6.528;2023-05-17T01:36:13;14.52;;;3.17;;
52964;SDS011;42923;53.220;6.528;2023-05-17T01:38:40;13.93;;;3.63;;
52964;SDS011;42923;53.220;6.528;2023-05-17T01:41:10;18.38;;;3.20;;
52964;SDS011;42923;53.220;6.528;2023-05-17T01:43:43;15.02;;;3.53;;
52964;SDS011;42923;53.220;6.528;2023-05-17T01:48:48;17.35;;;2.83;;
52964;SDS011;42923;53.220;6.528;2023-05-17T01:51:22;14.95;;;3.20;;
52964;SDS011;42923;53.220;6.528;2023-05-17T01:53:56;19.70;;;3.85;;
52964;SDS011;42923;53.220;6.528;2023-05-17T01:56:26;14.98;;;2.78;;
52964;SDS011;42923;53.220;6.528;2023-05-17T01:58:57;14.18;;;3.28;;
52964;SDS011;42923;53.220;6.528;2023-05-17T02:01:24;8.63;;;2.65;;
52964;SDS011;42923;53.220;6.528;2023-05-17T02:03:52;16.13;;;3.28;;
52964;SDS011;42923;53.220;6.528;2023-05-17T02:06:18;15.10;;;2.78;;
52964;SDS011;42923;53.220;6.528;2023-05-17T02:08:44;15.15;;;3.38;;
52964;SDS011;42923;53.220;6.528;2023-05-17T02:11:09;7.75;;;2.63;;
52964;SDS011;42923;53.220;6.528;2023-05-17T02:13:35;15.63;;;2.83;;
52964;SDS011;42923;53.220;6.528;2023-05-17T02:16:01;11.05;;;2.53;;
52964;SDS011;42923;53.220;6.528;2023-05-17T02:18:28;15.93;;;2.28;;
52964;SDS011;42923;53.220;6.528;2023-05-17T02:20:54;14.23;;;3.00;;
52964;SDS011;42923;53.220;6.528;2023-05-17T02:23:20;14.95;;;2.65;;
52964;SDS011;42923;53.220;6.528;2023-05-17T02:25:45;16.95;;;3.08;;
52964;SDS011;42923;53.220;6.528;2023-05-17T02:28:11;14.07;;;3.33;;
52964;SDS011;42923;53.220;6.528;2023-05-17T02:30:37;13.18;;;3.67;;
52964;SDS011;42923;53.220;6.528;2023-05-17T02:33:06;15.43;;;2.72;;
52964;SDS011;42923;53.220;6.528;2023-05-17T02:35:32;15.68;;;4.78;;
52964;SDS011;42923;53.220;6.528;2023-05-17T02:37:58;14.23;;;2.88;;
52964;SDS011;42923;53.220;6.528;2023-05-17T02:40:24;15.02;;;2.97;;
52964;SDS011;42923;53.220;6.528;2023-05-17T02:42:50;10.27;;;2.28;;
52964;SDS011;42923;53.220;6.528;2023-05-17T02:45:16;15.50;;;3.30;;
52964;SDS011;42923;53.220;6.528;2023-05-17T02:47:41;12.15;;;2.63;;
52964;SDS011;42923;53.220;6.528;2023-05-17T02:50:07;19.52;;;3.88;;
52964;SDS011;42923;53.220;6.528;2023-05-17T02:52:33;16.40;;;3.08;;
52964;SDS011;42923;53.220;6.528;2023-05-17T02:55:00;9.20;;;2.72;;
52964;SDS011;42923;53.220;6.528;2023-05-17T02:57:26;14.05;;;2.90;;
52964;SDS011;42923;53.220;6.528;2023-05-17T02:59:52;14.55;;;3.20;;
52964;SDS011;42923;53.220;6.528;2023-05-17T03:02:18;13.02;;;3.20;;
52964;SDS011;42923;53.220;6.528;2023-05-17T03:04:44;20.50;;;2.83;;
52964;SDS011;42923;53.220;6.528;2023-05-17T03:07:10;13.50;;;2.60;;
52964;SDS011;42923;53.220;6.528;2023-05-17T03:09:37;16.52;;;2.60;;
52964;SDS011;42923;53.220;6.528;2023-05-17T03:12:03;15.65;;;3.20;;
52964;SDS011;42923;53.220;6.528;2023-05-17T03:14:31;20.75;;;3.63;;
52964;SDS011;42923;53.220;6.528;2023-05-17T03:16:57;19.83;;;3.10;;
52964;SDS011;42923;53.220;6.528;2023-05-17T03:19:24;18.08;;;3.63;;
52964;SDS011;42923;53.220;6.528;2023-05-17T03:21:51;9.50;;;2.72;;
52964;SDS011;42923;53.220;6.528;2023-05-17T03:24:17;14.60;;;2.70;;
52964;SDS011;42923;53.220;6.528;2023-05-17T03:26:43;14.32;;;2.25;;
52964;SDS011;42923;53.220;6.528;2023-05-17T03:29:10;15.05;;;3.28;;
52964;SDS011;42923;53.220;6.528;2023-05-17T03:31:39;9.05;;;2.15;;
52964;SDS011;42923;53.220;6.528;2023-05-17T03:34:04;10.38;;;1.92;;
52964;SDS011;42923;53.220;6.528;2023-05-17T03:36:32;14.10;;;2.83;;
52964;SDS011;42923;53.220;6.528;2023-05-17T03:38:58;9.70;;;2.58;;
52964;SDS011;42923;53.220;6.528;2023-05-17T03:41:25;6.63;;;1.83;;
52964;SDS011;42923;53.220;6.528;2023-05-17T03:43:51;7.43;;;1.83;;
52964;SDS011;42923;53.220;6.528;2023-05-17T03:46:20;7.82;;;2.55;;
52964;SDS011;42923;53.220;6.528;2023-05-17T03:48:47;9.10;;;2.30;;
52964;SDS011;42923;53.220;6.528;2023-05-17T03:51:13;9.93;;;2.38;;
52964;SDS011;42923;53.220;6.528;2023-05-17T03:53:39;6.70;;;1.85;;
52964;SDS011;42923;53.220;6.528;2023-05-17T03:56:08;9.65;;;2.53;;
52964;SDS011;42923;53.220;6.528;2023-05-17T03:58:35;8.35;;;2.47;;
52964;SDS011;42923;53.220;6.528;2023-05-17T04:01:01;10.10;;;2.45;;
52964;SDS011;42923;53.220;6.528;2023-05-17T04:03:27;16.83;;;1.70;;
52964;SDS011;42923;53.220;6.528;2023-05-17T04:05:53;10.40;;;2.47;;
52964;SDS011;42923;53.220;6.528;2023-05-17T04:08:25;12.02;;;2.25;;
52964;SDS011;42923;53.220;6.528;2023-05-17T04:10:51;11.68;;;2.30;;
52964;SDS011;42923;53.220;6.528;2023-05-17T04:13:17;7.97;;;1.90;;
52964;SDS011;42923;53.220;6.528;2023-05-17T04:15:44;7.72;;;1.85;;
52964;SDS011;42923;53.220;6.528;2023-05-17T04:18:10;12.90;;;2.65;;
52964;SDS011;42923;53.220;6.528;2023-05-17T04:20:37;7.20;;;2.08;;
52964;SDS011;42923;53.220;6.528;2023-05-17T04:23:03;11.82;;;2.10;;
52964;SDS011;42923;53.220;6.528;2023-05-17T04:25:33;8.63;;;2.13;;
52964;SDS011;42923;53.220;6.528;2023-05-17T04:27:58;10.35;;;2.55;;
52964;SDS011;42923;53.220;6.528;2023-05-17T04:30:24;7.47;;;2.28;;
52964;SDS011;42923;53.220;6.528;2023-05-17T04:32:50;6.15;;;1.80;;
52964;SDS011;42923;53.220;6.528;2023-05-17T04:35:16;11.43;;;2.10;;
52964;SDS011;42923;53.220;6.528;2023-05-17T04:37:45;9.40;;;2.30;;
52964;SDS011;42923;53.220;6.528;2023-05-17T04:40:17;9.70;;;1.95;;
52964;SDS011;42923;53.220;6.528;2023-05-17T04:42:44;5.10;;;2.15;;
52964;SDS011;42923;53.220;6.528;2023-05-17T04:45:10;8.40;;;1.73;;
52964;SDS011;42923;53.220;6.528;2023-05-17T04:47:37;10.07;;;2.38;;
52964;SDS011;42923;53.220;6.528;2023-05-17T04:50:03;11.43;;;2.17;;
52964;SDS011;42923;53.220;6.528;2023-05-17T04:52:29;5.80;;;1.75;;
52964;SDS011;42923;53.220;6.528;2023-05-17T04:54:56;7.53;;;2.05;;
52964;SDS011;42923;53.220;6.528;2023-05-17T04:57:22;4.93;;;1.83;;
52964;SDS011;42923;53.220;6.528;2023-05-17T05:00:00;5.50;;;1.80;;
52964;SDS011;42923;53.220;6.528;2023-05-17T05:02:41;14.65;;;3.45;;
52964;SDS011;42923;53.220;6.528;2023-05-17T05:05:09;7.75;;;2.22;;
52964;SDS011;42923;53.220;6.528;2023-05-17T05:07:36;7.45;;;1.63;;
52964;SDS011;42923;53.220;6.528;2023-05-17T05:10:04;6.70;;;1.52;;
52964;SDS011;42923;53.220;6.528;2023-05-17T05:12:31;7.15;;;1.80;;
52964;SDS011;42923;53.220;6.528;2023-05-17T05:14:57;9.25;;;2.28;;
52964;SDS011;42923;53.220;6.528;2023-05-17T05:17:23;10.82;;;2.60;;
52964;SDS011;42923;53.220;6.528;2023-05-17T05:19:49;7.22;;;1.92;;
52964;SDS011;42923;53.220;6.528;2023-05-17T05:22:16;13.10;;;3.38;;
52964;SDS011;42923;53.220;6.528;2023-05-17T05:24:43;12.00;;;2.20;;
52964;SDS011;42923;53.220;6.528;2023-05-17T05:27:08;15.80;;;2.83;;
52964;SDS011;42923;53.220;6.528;2023-05-17T05:29:36;9.93;;;2.28;;
52964;SDS011;42923;53.220;6.528;2023-05-17T05:32:01;18.35;;;2.28;;
52964;SDS011;42923;53.220;6.528;2023-05-17T05:34:27;11.90;;;2.08;;
52964;SDS011;42923;53.220;6.528;2023-05-17T05:36:55;9.20;;;2.20;;
52964;SDS011;42923;53.220;6.528;2023-05-17T05:39:21;13.48;;;2.65;;
52964;SDS011;42923;53.220;6.528;2023-05-17T05:41:47;18.48;;;3.05;;
52964;SDS011;42923;53.220;6.528;2023-05-17T05:44:12;8.90;;;2.00;;
52964;SDS011;42923;53.220;6.528;2023-05-17T05:46:39;8.82;;;2.33;;
52964;SDS011;42923;53.220;6.528;2023-05-17T05:49:05;8.70;;;2.58;;
52964;SDS011;42923;53.220;6.528;2023-05-17T05:51:32;10.30;;;2.70;;
52964;SDS011;42923;53.220;6.528;2023-05-17T05:54:00;8.95;;;2.60;;
52964;SDS011;42923;53.220;6.528;2023-05-17T05:56:26;8.93;;;2.33;;
52964;SDS011;42923;53.220;6.528;2023-05-17T05:58:53;14.80;;;4.43;;
52964;SDS011;42923;53.220;6.528;2023-05-17T06:01:20;13.02;;;2.75;;
52964;SDS011;42923;53.220;6.528;2023-05-17T06:03:46;11.20;;;2.25;;
52964;SDS011;42923;53.220;6.528;2023-05-17T06:06:12;11.73;;;3.53;;
52964;SDS011;42923;53.220;6.528;2023-05-17T06:08:39;13.55;;;3.03;;
52964;SDS011;42923;53.220;6.528;2023-05-17T06:11:04;8.63;;;2.70;;
52964;SDS011;42923;53.220;6.528;2023-05-17T06:13:30;7.20;;;2.17;;
52964;SDS011;42923;53.220;6.528;2023-05-17T06:15:56;12.55;;;3.33;;
52964;SDS011;42923;53.220;6.528;2023-05-17T06:18:23;10.75;;;3.08;;
52964;SDS011;42923;53.220;6.528;2023-05-17T06:20:49;14.05;;;3.50;;
52964;SDS011;42923;53.220;6.528;2023-05-17T06:23:15;12.32;;;3.05;;
52964;SDS011;42923;53.220;6.528;2023-05-17T06:25:41;15.63;;;2.75;;
52964;SDS011;42923;53.220;6.528;2023-05-17T06:28:06;16.42;;;3.15;;
52964;SDS011;42923;53.220;6.528;2023-05-17T06:30:33;34.75;;;5.93;;
52964;SDS011;42923;53.220;6.528;2023-05-17T06:32:59;13.95;;;2.47;;
52964;SDS011;42923;53.220;6.528;2023-05-17T06:35:25;16.90;;;3.25;;
52964;SDS011;42923;53.220;6.528;2023-05-17T06:37:51;12.18;;;2.67;;
52964;SDS011;42923;53.220;6.528;2023-05-17T06:40:17;13.18;;;2.78;;
52964;SDS011;42923;53.220;6.528;2023-05-17T06:42:42;20.42;;;2.80;;
52964;SDS011;42923;53.220;6.528;2023-05-17T06:45:08;9.50;;;2.40;;
52964;SDS011;42923;53.220;6.528;2023-05-17T06:47:35;9.43;;;2.88;;
52964;SDS011;42923;53.220;6.528;2023-05-17T06:50:00;12.20;;;2.58;;
52964;SDS011;42923;53.220;6.528;2023-05-17T06:52:26;16.30;;;3.13;;
52964;SDS011;42923;53.220;6.528;2023-05-17T06:54:52;15.88;;;3.92;;
52964;SDS011;42923;53.220;6.528;2023-05-17T06:57:17;10.65;;;3.25;;
52964;SDS011;42923;53.220;6.528;2023-05-17T06:59:43;9.85;;;2.55;;
52964;SDS011;42923;53.220;6.528;2023-05-17T07:02:09;19.92;;;3.22;;
52964;SDS011;42923;53.220;6.528;2023-05-17T07:04:34;13.45;;;2.78;;
52964;SDS011;42923;53.220;6.528;2023-05-17T07:07:00;14.82;;;3.08;;
52964;SDS011;42923;53.220;6.528;2023-05-17T07:09:26;11.82;;;2.65;;
52964;SDS011;42923;53.220;6.528;2023-05-17T07:11:52;15.18;;;2.30;;
52964;SDS011;42923;53.220;6.528;2023-05-17T07:14:17;9.77;;;3.30;;
52964;SDS011;42923;53.220;6.528;2023-05-17T07:16:43;8.68;;;2.28;;
52964;SDS011;42923;53.220;6.528;2023-05-17T07:19:09;10.23;;;2.83;;
52964;SDS011;42923;53.220;6.528;2023-05-17T07:21:35;16.20;;;3.25;;
52964;SDS011;42923;53.220;6.528;2023-05-17T07:24:00;9.23;;;3.05;;
52964;SDS011;42923;53.220;6.528;2023-05-17T07:26:26;20.40;;;5.10;;
52964;SDS011;42923;53.220;6.528;2023-05-17T07:28:52;15.30;;;3.08;;
52964;SDS011;42923;53.220;6.528;2023-05-17T07:31:17;19.85;;;3.05;;
52964;SDS011;42923;53.220;6.528;2023-05-17T07:33:43;12.32;;;2.50;;
52964;SDS011;42923;53.220;6.528;2023-05-17T07:36:09;11.52;;;2.75;;
52964;SDS011;42923;53.220;6.528;2023-05-17T07:38:35;10.43;;;2.70;;
52964;SDS011;42923;53.220;6.528;2023-05-17T07:41:01;7.55;;;2.60;;
52964;SDS011;42923;53.220;6.528;2023-05-17T07:43:27;11.40;;;2.47;;
52964;SDS011;42923;53.220;6.528;2023-05-17T07:45:53;9.57;;;2.92;;
52964;SDS011;42923;53.220;6.528;2023-05-17T07:48:19;13.00;;;2.20;;
52964;SDS011;42923;53.220;6.528;2023-05-17T07:50:45;9.07;;;2.30;;
52964;SDS011;42923;53.220;6.528;2023-05-17T07:53:10;7.60;;;2.55;;
52964;SDS011;42923;53.220;6.528;2023-05-17T07:55:36;12.10;;;2.42;;
52964;SDS011;42923;53.220;6.528;2023-05-17T07:58:02;15.95;;;2.85;;
52964;SDS011;42923;53.220;6.528;2023-05-17T08:00:28;10.23;;;2.90;;
52964;SDS011;42923;53.220;6.528;2023-05-17T08:02:55;24.33;;;3.63;;
52964;SDS011;42923;53.220;6.528;2023-05-17T08:05:20;14.45;;;2.75;;
52964;SDS011;42923;53.220;6.528;2023-05-17T08:07:46;9.98;;;2.55;;
52964;SDS011;42923;53.220;6.528;2023-05-17T08:10:12;4.45;;;1.75;;
52964;SDS011;42923;53.220;6.528;2023-05-17T08:12:37;8.40;;;2.33;;
52964;SDS011;42923;53.220;6.528;2023-05-17T08:15:04;10.30;;;3.10;;
52964;SDS011;42923;53.220;6.528;2023-05-17T08:17:29;10.35;;;2.15;;
52964;SDS011;42923;53.220;6.528;2023-05-17T08:19:55;12.02;;;2.38;;
52964;SDS011;42923;53.220;6.528;2023-05-17T08:22:21;5.93;;;1.95;;
52964;SDS011;42923;53.220;6.528;2023-05-17T08:24:46;9.05;;;2.60;;
52964;SDS011;42923;53.220;6.528;2023-05-17T08:27:12;12.18;;;2.53;;
52964;SDS011;42923;53.220;6.528;2023-05-17T08:29:38;8.00;;;2.20;;
52964;SDS011;42923;53.220;6.528;2023-05-17T08:32:04;7.82;;;2.20;;
52964;SDS011;42923;53.220;6.528;2023-05-17T08:34:30;11.38;;;3.13;;
52964;SDS011;42923;53.220;6.528;2023-05-17T08:36:56;10.90;;;2.58;;
52964;SDS011;42923;53.220;6.528;2023-05-17T08:39:22;17.52;;;2.50;;
52964;SDS011;42923;53.220;6.528;2023-05-17T08:41:47;11.77;;;2.53;;
52964;SDS011;42923;53.220;6.528;2023-05-17T08:44:13;17.58;;;2.15;;
52964;SDS011;42923;53.220;6.528;2023-05-17T08:46:41;14.40;;;2.30;;
52964;SDS011;42923;53.220;6.528;2023-05-17T08:49:08;4.78;;;1.63;;
52964;SDS011;42923;53.220;6.528;2023-05-17T08:51:37;9.15;;;1.80;;
52964;SDS011;42923;53.220;6.528;2023-05-17T08:54:04;6.97;;;1.85;;
52964;SDS011;42923;53.220;6.528;2023-05-17T08:56:30;8.93;;;2.20;;
52964;SDS011;42923;53.220;6.528;2023-05-17T08:58:57;9.68;;;2.50;;
52964;SDS011;42923;53.220;6.528;2023-05-17T09:01:23;11.00;;;2.30;;
52964;SDS011;42923;53.220;6.528;2023-05-17T09:03:49;6.53;;;2.20;;
52964;SDS011;42923;53.220;6.528;2023-05-17T09:06:22;5.22;;;1.90;;
52964;SDS011;42923;53.220;6.528;2023-05-17T09:08:52;11.32;;;2.13;;
52964;SDS011;42923;53.220;6.528;2023-05-17T09:11:23;12.27;;;2.85;;
52964;SDS011;42923;53.220;6.528;2023-05-17T09:13:51;9.25;;;2.03;;
52964;SDS011;42923;53.220;6.528;2023-05-17T09:16:16;8.70;;;2.53;;
52964;SDS011;42923;53.220;6.528;2023-05-17T09:18:52;8.93;;;2.20;;
52964;SDS011;42923;53.220;6.528;2023-05-17T09:21:19;7.97;;;2.17;;
52964;SDS011;42923;53.220;6.528;2023-05-17T09:23:46;9.07;;;1.90;;
52964;SDS011;42923;53.220;6.528;2023-05-17T09:26:12;6.13;;;1.75;;
52964;SDS011;42923;53.220;6.528;2023-05-17T09:28:39;4.75;;;1.60;;
52964;SDS011;42923;53.220;6.528;2023-05-17T09:31:06;7.65;;;2.10;;
52964;SDS011;42923;53.220;6.528;2023-05-17T09:33:33;6.40;;;1.63;;
52964;SDS011;42923;53.220;6.528;2023-05-17T09:36:00;8.90;;;1.77;;
52964;SDS011;42923;53.220;6.528;2023-05-17T09:38:26;7.10;;;1.70;;
52964;SDS011;42923;53.220;6.528;2023-05-17T09:40:52;7.63;;;2.05;;
52964;SDS011;42923;53.220;6.528;2023-05-17T09:43:22;7.30;;;2.15;;
52964;SDS011;42923;53.220;6.528;2023-05-17T09:45:56;6.28;;;2.33;;
52964;SDS011;42923;53.220;6.528;2023-05-17T09:48:23;9.70;;;2.33;;
52964;SDS011;42923;53.220;6.528;2023-05-17T09:50:51;8.20;;;1.83;;
52964;SDS011;42923;53.220;6.528;2023-05-17T09:53:32;5.05;;;1.45;;
52964;SDS011;42923;53.220;6.528;2023-05-17T09:56:04;8.85;;;1.63;;
52964;SDS011;42923;53.220;6.528;2023-05-17T09:58:31;7.80;;;1.98;;
52964;SDS011;42923;53.220;6.528;2023-05-17T10:00:58;7.13;;;1.75;;
52964;SDS011;42923;53.220;6.528;2023-05-17T10:03:30;13.30;;;2.13;;
52964;SDS011;42923;53.220;6.528;2023-05-17T10:05:58;8.73;;;2.08;;
52964;SDS011;42923;53.220;6.528;2023-05-17T10:08:26;5.28;;;1.98;;
52964;SDS011;42923;53.220;6.528;2023-05-17T10:10:57;5.60;;;1.33;;
52964;SDS011;42923;53.220;6.528;2023-05-17T10:13:35;12.07;;;2.22;;
52964;SDS011;42923;53.220;6.528;2023-05-17T10:16:06;3.00;;;1.08;;
52964;SDS011;42923;53.220;6.528;2023-05-17T10:18:32;6.85;;;1.95;;
52964;SDS011;42923;53.220;6.528;2023-05-17T10:20:58;10.18;;;1.90;;
52964;SDS011;42923;53.220;6.528;2023-05-17T10:23:26;9.43;;;2.33;;
52964;SDS011;42923;53.220;6.528;2023-05-17T10:25:53;10.68;;;2.28;;
52964;SDS011;42923;53.220;6.528;2023-05-17T10:28:20;5.95;;;2.03;;
52964;SDS011;42923;53.220;6.528;2023-05-17T10:30:47;14.10;;;2.13;;
52964;SDS011;42923;53.220;6.528;2023-05-17T10:33:14;7.15;;;2.10;;
52964;SDS011;42923;53.220;6.528;2023-05-17T10:35:42;4.35;;;1.67;;
52964;SDS011;42923;53.220;6.528;2023-05-17T10:38:10;5.00;;;1.70;;
52964;SDS011;42923;53.220;6.528;2023-05-17T10:40:36;4.38;;;1.98;;
52964;SDS011;42923;53.220;6.528;2023-05-17T10:43:04;6.20;;;2.47;;
52964;SDS011;42923;53.220;6.528;2023-05-17T10:45:31;7.82;;;2.33;;
52964;SDS011;42923;53.220;6.528;2023-05-17T10:47:58;10.02;;;2.58;;
52964;SDS011;42923;53.220;6.528;2023-05-17T10:50:29;12.13;;;2.10;;
52964;SDS011;42923;53.220;6.528;2023-05-17T10:52:56;8.18;;;2.08;;
52964;SDS011;42923;53.220;6.528;2023-05-17T10:55:33;6.30;;;1.75;;
52964;SDS011;42923;53.220;6.528;2023-05-17T10:58:15;5.03;;;2.20;;
52964;SDS011;42923;53.220;6.528;2023-05-17T11:00:43;6.60;;;2.42;;
52964;SDS011;42923;53.220;6.528;2023-05-17T11:03:14;4.35;;;1.75;;
52964;SDS011;42923;53.220;6.528;2023-05-17T11:05:44;3.33;;;1.30;;
52964;SDS011;42923;53.220;6.528;2023-05-17T11:08:36;8.63;;;1.92;;
52964;SDS011;42923;53.220;6.528;2023-05-17T11:11:29;5.90;;;1.67;;
52964;SDS011;42923;53.220;6.528;2023-05-17T11:13:55;5.35;;;1.83;;
52964;SDS011;42923;53.220;6.528;2023-05-17T11:16:26;8.05;;;1.90;;
52964;SDS011;42923;53.220;6.528;2023-05-17T11:19:06;6.25;;;2.10;;
52964;SDS011;42923;53.220;6.528;2023-05-17T11:21:32;10.00;;;2.05;;
52964;SDS011;42923;53.220;6.528;2023-05-17T11:23:59;10.40;;;2.78;;
52964;SDS011;42923;53.220;6.528;2023-05-17T11:29:01;8.68;;;2.63;;
52964;SDS011;42923;53.220;6.528;2023-05-17T11:31:31;7.00;;;2.05;;
52964;SDS011;42923;53.220;6.528;2023-05-17T11:33:58;6.50;;;1.92;;
52964;SDS011;42923;53.220;6.528;2023-05-17T11:36:26;4.93;;;2.13;;
52964;SDS011;42923;53.220;6.528;2023-05-17T11:39:25;5.38;;;1.85;;
52964;SDS011;42923;53.220;6.528;2023-05-17T11:41:48;7.40;;;2.10;;
52964;SDS011;42923;53.220;6.528;2023-05-17T11:44:26;6.10;;;1.90;;
52964;SDS011;42923;53.220;6.528;2023-05-17T11:47:01;4.85;;;1.77;;
52964;SDS011;42923;53.220;6.528;2023-05-17T11:49:28;7.53;;;1.67;;
52964;SDS011;42923;53.220;6.528;2023-05-17T11:52:15;8.93;;;2.05;;
52964;SDS011;42923;53.220;6.528;2023-05-17T11:54:41;6.22;;;2.25;;
52964;SDS011;42923;53.220;6.528;2023-05-17T11:57:07;10.77;;;1.80;;
52964;SDS011;42923;53.220;6.528;2023-05-17T11:59:35;8.82;;;1.92;;
52964;SDS011;42923;53.220;6.528;2023-05-17T12:02:04;6.60;;;1.90;;
52964;SDS011;42923;53.220;6.528;2023-05-17T12:04:33;8.45;;;2.33;;
52964;SDS011;42923;53.220;6.528;2023-05-17T12:07:02;7.97;;;1.83;;
52964;SDS011;42923;53.220;6.528;2023-05-17T12:09:28;12.23;;;2.20;;
52964;SDS011;42923;53.220;6.528;2023-05-17T12:11:55;7.18;;;2.17;;
52964;SDS011;42923;53.220;6.528;2023-05-17T12:14:22;9.32;;;1.92;;
52964;SDS011;42923;53.220;6.528;2023-05-17T12:16:52;6.38;;;1.88;;
52964;SDS011;42923;53.220;6.528;2023-05-17T12:19:22;11.18;;;2.03;;
52964;SDS011;42923;53.220;6.528;2023-05-17T12:22:03;8.02;;;2.15;;
52964;SDS011;42923;53.220;6.528;2023-05-17T12:24:36;12.40;;;2.00;;
52964;SDS011;42923;53.220;6.528;2023-05-17T12:27:06;8.15;;;2.50;;
52964;SDS011;42923;53.220;6.528;2023-05-17T12:29:32;12.68;;;2.08;;
52964;SDS011;42923;53.220;6.528;2023-05-17T12:31:59;7.35;;;2.45;;
52964;SDS011;42923;53.220;6.528;2023-05-17T12:34:25;8.15;;;2.42;;
52964;SDS011;42923;53.220;6.528;2023-05-17T12:36:54;7.07;;;1.92;;
52964;SDS011;42923;53.220;6.528;2023-05-17T12:39:21;7.28;;;1.85;;
52964;SDS011;42923;53.220;6.528;2023-05-17T12:41:51;9.55;;;2.30;;
52964;SDS011;42923;53.220;6.528;2023-05-17T12:44:18;8.93;;;1.77;;
52964;SDS011;42923;53.220;6.528;2023-05-17T12:46:45;7.50;;;2.65;;
52964;SDS011;42923;53.220;6.528;2023-05-17T12:49:17;7.72;;;2.53;;
52964;SDS011;42923;53.220;6.528;2023-05-17T12:51:45;8.20;;;2.13;;
52964;SDS011;42923;53.220;6.528;2023-05-17T12:54:13;9.77;;;1.92;;
52964;SDS011;42923;53.220;6.528;2023-05-17T12:56:48;5.40;;;1.35;;
52964;SDS011;42923;53.220;6.528;2023-05-17T12:59:14;5.82;;;1.85;;
52964;SDS011;42923;53.220;6.528;2023-05-17T13:01:42;6.60;;;1.73;;
52964;SDS011;42923;53.220;6.528;2023-05-17T13:04:13;9.45;;;1.95;;
52964;SDS011;42923;53.220;6.528;2023-05-17T13:06:50;5.32;;;1.70;;
52964;SDS011;42923;53.220;6.528;2023-05-17T13:09:18;6.28;;;2.35;;
52964;SDS011;42923;53.220;6.528;2023-05-17T13:11:52;8.27;;;1.65;;
52964;SDS011;42923;53.220;6.528;2023-05-17T13:14:41;7.90;;;2.17;;
52964;SDS011;42923;53.220;6.528;2023-05-17T13:17:08;8.48;;;2.42;;
52964;SDS011;42923;53.220;6.528;2023-05-17T13:19:48;6.50;;;1.65;;
52964;SDS011;42923;53.220;6.528;2023-05-17T13:22:14;3.15;;;1.20;;
52964;SDS011;42923;53.220;6.528;2023-05-17T13:24:40;11.70;;;1.92;;
52964;SDS011;42923;53.220;6.528;2023-05-17T13:27:06;8.18;;;1.80;;
52964;SDS011;42923;53.220;6.528;2023-05-17T13:29:33;8.07;;;2.10;;
52964;SDS011;42923;53.220;6.528;2023-05-17T13:32:00;5.38;;;1.52;;
52964;SDS011;42923;53.220;6.528;2023-05-17T13:34:26;10.40;;;2.25;;
52964;SDS011;42923;53.220;6.528;2023-05-17T13:36:52;7.25;;;2.45;;
52964;SDS011;42923;53.220;6.528;2023-05-17T13:39:18;12.85;;;2.22;;
52964;SDS011;42923;53.220;6.528;2023-05-17T13:41:45;6.32;;;1.88;;
52964;SDS011;42923;53.220;6.528;2023-05-17T13:44:10;8.30;;;2.63;;
52964;SDS011;42923;53.220;6.528;2023-05-17T13:46:36;6.30;;;1.38;;
52964;SDS011;42923;53.220;6.528;2023-05-17T13:49:02;9.60;;;2.00;;
52964;SDS011;42923;53.220;6.528;2023-05-17T13:51:29;9.68;;;1.80;;
52964;SDS011;42923;53.220;6.528;2023-05-17T13:53:55;5.72;;;1.55;;
52964;SDS011;42923;53.220;6.528;2023-05-17T13:56:21;5.28;;;2.00;;
52964;SDS011;42923;53.220;6.528;2023-05-17T13:58:47;4.57;;;1.55;;
52964;SDS011;42923;53.220;6.528;2023-05-17T14:01:13;8.90;;;1.83;;
52964;SDS011;42923;53.220;6.528;2023-05-17T14:03:40;4.85;;;1.80;;
52964;SDS011;42923;53.220;6.528;2023-05-17T14:06:06;11.57;;;2.50;;
52964;SDS011;42923;53.220;6.528;2023-05-17T14:08:31;9.73;;;1.65;;
52964;SDS011;42923;53.220;6.528;2023-05-17T14:10:58;5.03;;;1.73;;
52964;SDS011;42923;53.220;6.528;2023-05-17T14:13:24;5.82;;;2.05;;
52964;SDS011;42923;53.220;6.528;2023-05-17T14:15:51;7.68;;;1.52;;
52964;SDS011;42923;53.220;6.528;2023-05-17T14:18:17;7.22;;;2.13;;
52964;SDS011;42923;53.220;6.528;2023-05-17T14:20:42;7.75;;;1.85;;
52964;SDS011;42923;53.220;6.528;2023-05-17T14:23:08;9.88;;;2.00;;
52964;SDS011;42923;53.220;6.528;2023-05-17T14:25:34;10.23;;;2.08;;
52964;SDS011;42923;53.220;6.528;2023-05-17T14:28:00;6.22;;;1.70;;
52964;SDS011;42923;53.220;6.528;2023-05-17T14:30:25;10.15;;;1.58;;
52964;SDS011;42923;53.220;6.528;2023-05-17T14:32:51;8.13;;;1.95;;
52964;SDS011;42923;53.220;6.528;2023-05-17T14:35:17;7.93;;;2.60;;
52964;SDS011;42923;53.220;6.528;2023-05-17T14:37:43;6.85;;;1.52;;
52964;SDS011;42923;53.220;6.528;2023-05-17T14:40:08;8.30;;;1.70;;
52964;SDS011;42923;53.220;6.528;2023-05-17T14:42:36;4.50;;;1.65;;
52964;SDS011;42923;53.220;6.528;2023-05-17T14:45:02;4.30;;;1.52;;
52964;SDS011;42923;53.220;6.528;2023-05-17T14:47:28;2.17;;;1.25;;
52964;SDS011;42923;53.220;6.528;2023-05-17T14:49:53;6.65;;;1.98;;
52964;SDS011;42923;53.220;6.528;2023-05-17T14:52:19;6.03;;;1.67;;
52964;SDS011;42923;53.220;6.528;2023-05-17T14:54:46;4.68;;;1.98;;
52964;SDS011;42923;53.220;6.528;2023-05-17T14:57:11;10.57;;;1.92;;